Time;durP1;ratioP1;P1;durP2;ratioP2;P2;SDS_P1;SDS_P2;PMS_P1;PMS_P2;Temp;Humidity;BMP_temperature;BMP_pressure;BME280_temperature;BME280_humidity;BME280_pressure;Samples;Min_cycle;Max_cycle;Signal;HPM_P1;HPM_P2
2022/03/26 00:02:18;;;;;;;41.38;19.08;;;;;;;;;;5014289;28;20018;-81
2022/03/26 00:04:44;;;;;;;39.28;19.63;;;;;;;;;;5018944;28;20068;-80
2022/03/26 00:07:09;;;;;;;45.30;19.48;;;;;;;;;;5014756;28;20076;-77
2022/03/26 00:09:35;;;;;;;35.85;19.88;;;;;;;;;;5020803;28;20025;-78
2022/03/26 00:12:00;;;;;;;33.80;17.35;;;;;;;;;;5022066;28;20486;-80
2022/03/26 00:14:26;;;;;;;31.23;17.67;;;;;;;;;;5019611;28;20054;-80
2022/03/26 00:16:51;;;;;;;34.47;17.75;;;;;;;;;;5016300;28;20052;-79
2022/03/26 00:19:16;;;;;;;38.80;21.23;;;;;;;;;;5012021;28;20017;-79
2022/03/26 00:21:42;;;;;;;36.35;18.40;;;;;;;;;;5013614;28;20100;-77
2022/03/26 00:24:07;;;;;;;42.10;19.67;;;;;;;;;;5019036;28;20021;-84
2022/03/26 00:26:32;;;;;;;38.13;20.13;;;;;;;;;;5017132;28;20025;-83
2022/03/26 00:28:58;;;;;;;38.15;19.67;;;;;;;;;;5016320;28;20025;-78
2022/03/26 00:31:23;;;;;;;43.72;18.80;;;;;;;;;;5020659;28;20043;-81
2022/03/26 00:33:49;;;;;;;40.20;17.30;;;;;;;;;;5017692;28;20034;-82
2022/03/26 00:36:14;;;;;;;34.58;17.05;;;;;;;;;;5029386;28;20662;-83
2022/03/26 00:38:39;;;;;;;30.40;17.27;;;;;;;;;;5020780;28;20529;-80
2022/03/26 00:41:04;;;;;;;35.03;17.88;;;;;;;;;;5015311;28;20029;-84
2022/03/26 00:43:30;;;;;;;36.92;17.15;;;;;;;;;;5022201;28;20139;-80
2022/03/26 00:45:55;;;;;;;36.38;17.35;;;;;;;;;;5019740;28;20053;-80
2022/03/26 00:48:20;;;;;;;31.02;16.33;;;;;;;;;;5017404;28;20502;-81
2022/03/26 00:50:45;;;;;;;34.95;17.17;;;;;;;;;;5011924;28;20025;-79
2022/03/26 00:53:13;;;;;;;29.25;16.42;;;;;;;;;;5010148;28;20168;-77
2022/03/26 00:55:39;;;;;;;30.50;17.85;;;;;;;;;;5016895;28;20014;-78
2022/03/26 00:58:05;;;;;;;29.23;16.30;;;;;;;;;;5020232;28;20029;-79
2022/03/26 01:00:30;;;;;;;31.25;16.95;;;;;;;;;;5012055;28;20031;-85
2022/03/26 01:02:56;;;;;;;32.38;16.88;;;;;;;;;;5011406;28;20021;-80
2022/03/26 01:05:21;;;;;;;31.20;15.90;;;;;;;;;;5011925;28;20068;-84
2022/03/26 01:07:47;;;;;;;40.42;18.88;;;;;;;;;;5013863;28;20427;-81
2022/03/26 01:10:12;;;;;;;32.90;16.60;;;;;;;;;;5015128;28;20014;-88
2022/03/26 01:12:38;;;;;;;37.47;17.35;;;;;;;;;;5018531;28;20109;-83
2022/03/26 01:15:03;;;;;;;35.58;16.80;;;;;;;;;;5014128;28;20138;-83
2022/03/26 01:17:29;;;;;;;29.02;16.13;;;;;;;;;;5013245;28;20022;-80
2022/03/26 01:19:54;;;;;;;31.50;16.20;;;;;;;;;;5013200;28;20479;-81
2022/03/26 01:22:20;;;;;;;33.88;17.58;;;;;;;;;;5011814;28;20372;-81
2022/03/26 01:24:45;;;;;;;38.60;18.30;;;;;;;;;;5012972;28;20391;-80
2022/03/26 01:27:10;;;;;;;35.00;16.45;;;;;;;;;;5014260;28;20026;-79
2022/03/26 01:29:38;;;;;;;26.58;16.60;;;;;;;;;;5013522;28;20092;-79
2022/03/26 01:32:05;;;;;;;36.20;16.73;;;;;;;;;;5012620;28;20120;-82
2022/03/26 01:34:30;;;;;;;32.80;15.95;;;;;;;;;;5013070;28;20025;-83
2022/03/26 01:36:55;;;;;;;43.63;17.67;;;;;;;;;;5013340;28;20021;-86
2022/03/26 01:39:23;;;;;;;32.28;18.08;;;;;;;;;;5011829;28;20479;-82
2022/03/26 01:41:48;;;;;;;33.03;17.20;;;;;;;;;;5010823;28;20409;-83
2022/03/26 01:44:14;;;;;;;32.60;16.85;;;;;;;;;;5011202;28;20026;-81
2022/03/26 01:46:46;;;;;;;31.70;17.45;;;;;;;;;;5009937;28;20009;-76
2022/03/26 01:49:11;;;;;;;30.80;16.70;;;;;;;;;;5009329;28;20038;-80
2022/03/26 01:51:36;;;;;;;37.05;19.00;;;;;;;;;;5008219;28;20018;-77
2022/03/26 01:54:02;;;;;;;31.50;16.58;;;;;;;;;;5009725;28;20663;-78
2022/03/26 01:56:27;;;;;;;32.88;16.58;;;;;;;;;;5009747;28;20041;-78
2022/03/26 01:58:52;;;;;;;30.08;16.63;;;;;;;;;;5011748;28;20033;-80
2022/03/26 02:01:18;;;;;;;32.55;18.40;;;;;;;;;;5011829;28;20100;-80
2022/03/26 02:03:43;;;;;;;36.28;17.13;;;;;;;;;;5011874;28;20041;-78
2022/03/26 02:06:08;;;;;;;32.10;17.70;;;;;;;;;;5011841;28;20032;-78
2022/03/26 02:08:34;;;;;;;35.58;17.42;;;;;;;;;;5011208;28;20022;-78
2022/03/26 02:11:00;;;;;;;34.22;16.80;;;;;;;;;;5010909;28;20029;-78
2022/03/26 02:13:25;;;;;;;35.97;17.17;;;;;;;;;;5010872;28;20073;-78
2022/03/26 02:15:51;;;;;;;33.45;17.85;;;;;;;;;;5014755;28;20160;-76
2022/03/26 02:18:17;;;;;;;36.00;16.92;;;;;;;;;;5014248;28;20515;-79
2022/03/26 02:20:43;;;;;;;35.63;17.20;;;;;;;;;;5014548;28;20490;-78
2022/03/26 02:23:09;;;;;;;41.92;17.80;;;;;;;;;;5016883;28;20033;-79
2022/03/26 02:25:34;;;;;;;38.55;18.52;;;;;;;;;;5015021;28;20022;-80
2022/03/26 02:27:59;;;;;;;32.00;17.23;;;;;;;;;;5014400;28;20415;-79
2022/03/26 02:30:25;;;;;;;42.88;18.67;;;;;;;;;;5014474;28;20418;-78
2022/03/26 02:32:50;;;;;;;33.22;18.90;;;;;;;;;;5014457;28;20116;-78
2022/03/26 02:35:15;;;;;;;44.22;17.70;;;;;;;;;;5014203;28;20032;-76
2022/03/26 02:37:40;;;;;;;39.38;18.20;;;;;;;;;;5014154;28;20483;-78
2022/03/26 02:40:07;;;;;;;34.30;18.23;;;;;;;;;;5014351;28;20018;-78
2022/03/26 02:42:34;;;;;;;30.00;17.92;;;;;;;;;;5014115;28;20152;-81
2022/03/26 02:44:59;;;;;;;32.58;17.10;;;;;;;;;;5014129;28;20032;-78
2022/03/26 02:47:25;;;;;;;32.38;17.65;;;;;;;;;;5013969;28;20018;-77
2022/03/26 02:49:50;;;;;;;32.50;17.52;;;;;;;;;;5012562;28;20483;-80
2022/03/26 02:52:15;;;;;;;36.80;17.92;;;;;;;;;;5012678;28;20096;-79
2022/03/26 02:54:41;;;;;;;29.43;16.83;;;;;;;;;;5013162;28;20018;-79
2022/03/26 02:57:06;;;;;;;32.47;17.30;;;;;;;;;;5014513;28;20713;-76
2022/03/26 02:59:32;;;;;;;36.10;18.30;;;;;;;;;;5013880;28;20052;-76
2022/03/26 03:01:57;;;;;;;39.17;19.13;;;;;;;;;;5013315;28;20052;-76
2022/03/26 03:04:22;;;;;;;33.90;17.30;;;;;;;;;;5014018;28;20101;-77
2022/03/26 03:06:48;;;;;;;33.95;17.42;;;;;;;;;;5013444;28;20064;-76
2022/03/26 03:09:13;;;;;;;32.13;16.45;;;;;;;;;;5013687;28;20022;-77
2022/03/26 03:11:38;;;;;;;39.67;18.88;;;;;;;;;;5013815;28;20049;-75
2022/03/26 03:14:04;;;;;;;39.40;17.88;;;;;;;;;;5013336;28;20054;-75
2022/03/26 03:16:30;;;;;;;33.33;17.33;;;;;;;;;;5013470;28;20025;-76
2022/03/26 03:18:55;;;;;;;35.13;16.92;;;;;;;;;;5014795;28;20024;-80
2022/03/26 03:21:21;;;;;;;33.53;18.70;;;;;;;;;;5012695;28;20460;-77
2022/03/26 03:23:46;;;;;;;40.92;18.52;;;;;;;;;;5017936;28;20024;-77
2022/03/26 03:26:11;;;;;;;33.85;18.90;;;;;;;;;;5016624;28;20383;-76
2022/03/26 03:28:38;;;;;;;36.67;17.77;;;;;;;;;;5011830;28;20018;-77
2022/03/26 03:31:03;;;;;;;34.67;17.48;;;;;;;;;;5013297;28;20108;-77
2022/03/26 03:33:28;;;;;;;32.42;16.38;;;;;;;;;;5011783;28;20116;-77
2022/03/26 03:35:53;;;;;;;36.42;17.58;;;;;;;;;;5013283;28;20024;-77
2022/03/26 03:38:19;;;;;;;36.63;18.60;;;;;;;;;;5013034;28;20460;-77
2022/03/26 03:40:45;;;;;;;35.17;18.95;;;;;;;;;;5013234;28;20014;-75
2022/03/26 03:43:10;;;;;;;36.83;20.20;;;;;;;;;;5013472;28;20026;-77
2022/03/26 03:45:35;;;;;;;41.20;19.73;;;;;;;;;;5012943;28;20104;-78
2022/03/26 03:48:01;;;;;;;34.22;19.20;;;;;;;;;;5011709;28;20383;-80
2022/03/26 03:50:26;;;;;;;36.33;18.13;;;;;;;;;;5012911;28;20068;-76
2022/03/26 03:52:52;;;;;;;34.53;19.17;;;;;;;;;;5012788;28;20040;-77
2022/03/26 03:55:17;;;;;;;40.45;17.42;;;;;;;;;;5012759;28;20022;-76
2022/03/26 03:57:43;;;;;;;39.13;18.73;;;;;;;;;;5013165;28;20021;-75
2022/03/26 04:00:12;;;;;;;35.38;19.42;;;;;;;;;;5008808;28;20467;-76
2022/03/26 04:02:37;;;;;;;38.10;20.05;;;;;;;;;;4992796;28;20026;-76
2022/03/26 04:05:03;;;;;;;32.42;18.00;;;;;;;;;;5000309;28;20376;-76
2022/03/26 04:07:28;;;;;;;32.97;18.95;;;;;;;;;;5012315;28;20022;-75
2022/03/26 04:09:54;;;;;;;31.70;16.95;;;;;;;;;;5012109;28;20447;-76
2022/03/26 04:12:19;;;;;;;34.60;18.80;;;;;;;;;;5011515;28;20076;-78
2022/03/26 04:14:44;;;;;;;33.60;18.38;;;;;;;;;;5015569;28;20093;-76
2022/03/26 04:17:10;;;;;;;35.38;19.45;;;;;;;;;;5005175;28;20077;-76
2022/03/26 04:19:36;;;;;;;39.92;19.55;;;;;;;;;;4991096;28;20415;-75
2022/03/26 04:22:01;;;;;;;35.08;19.35;;;;;;;;;;4992238;28;20022;-76
2022/03/26 04:24:26;;;;;;;34.78;18.90;;;;;;;;;;5007176;28;20113;-75
2022/03/26 04:26:52;;;;;;;33.97;19.55;;;;;;;;;;4992752;28;20077;-78
2022/03/26 04:29:17;;;;;;;35.65;20.77;;;;;;;;;;4992387;28;20097;-75
2022/03/26 04:31:42;;;;;;;41.30;19.73;;;;;;;;;;4992341;28;20026;-76
2022/03/26 04:34:08;;;;;;;35.78;19.75;;;;;;;;;;4992870;28;20026;-78
2022/03/26 04:36:34;;;;;;;40.72;20.05;;;;;;;;;;4995349;28;20090;-77
2022/03/26 04:38:59;;;;;;;38.65;20.88;;;;;;;;;;4992091;28;20100;-77
2022/03/26 04:41:25;;;;;;;35.70;19.20;;;;;;;;;;4992169;28;20052;-75
2022/03/26 04:43:50;;;;;;;37.08;20.25;;;;;;;;;;4991960;28;20456;-78
2022/03/26 04:46:16;;;;;;;46.67;20.63;;;;;;;;;;4992563;28;20022;-78
2022/03/26 04:48:41;;;;;;;45.90;21.02;;;;;;;;;;4995682;28;20014;-78
2022/03/26 04:51:06;;;;;;;40.70;19.83;;;;;;;;;;4994594;28;20023;-76
2022/03/26 04:53:32;;;;;;;35.60;19.30;;;;;;;;;;5005022;28;20670;-79
2022/03/26 04:55:57;;;;;;;40.42;19.42;;;;;;;;;;5013478;28;20026;-75
2022/03/26 04:58:22;;;;;;;32.28;18.85;;;;;;;;;;5011353;28;20156;-77
2022/03/26 05:00:47;;;;;;;36.13;19.95;;;;;;;;;;5011471;28;20044;-78
2022/03/26 05:03:13;;;;;;;41.63;20.33;;;;;;;;;;5011770;28;20033;-76
2022/03/26 05:05:38;;;;;;;43.33;20.60;;;;;;;;;;5011988;28;20411;-76
2022/03/26 05:08:03;;;;;;;40.40;20.77;;;;;;;;;;5013689;28;20021;-76
2022/03/26 05:10:29;;;;;;;36.88;19.45;;;;;;;;;;5012700;28;20030;-77
2022/03/26 05:12:55;;;;;;;33.25;19.08;;;;;;;;;;5011077;28;20067;-76
2022/03/26 05:15:21;;;;;;;38.50;19.52;;;;;;;;;;5011028;28;20116;-77
2022/03/26 05:17:47;;;;;;;35.53;19.45;;;;;;;;;;5011085;28;20026;-77
2022/03/26 05:20:12;;;;;;;37.92;19.17;;;;;;;;;;5011051;28;20078;-79
2022/03/26 05:22:38;;;;;;;39.80;19.48;;;;;;;;;;5011651;28;20040;-77
2022/03/26 05:25:04;;;;;;;41.60;19.08;;;;;;;;;;5011846;28;20013;-77
2022/03/26 05:27:29;;;;;;;40.50;18.98;;;;;;;;;;5011275;28;20026;-76
2022/03/26 05:29:54;;;;;;;42.17;19.60;;;;;;;;;;5011147;28;20022;-78
2022/03/26 05:32:19;;;;;;;39.72;18.77;;;;;;;;;;5011843;28;20061;-77
2022/03/26 05:34:45;;;;;;;34.90;18.48;;;;;;;;;;5013356;28;20080;-79
2022/03/26 05:37:10;;;;;;;40.28;19.55;;;;;;;;;;5016859;28;20025;-78
2022/03/26 05:39:35;;;;;;;36.28;19.55;;;;;;;;;;5011667;28;20021;-76
2022/03/26 05:42:01;;;;;;;35.60;19.20;;;;;;;;;;5011136;28;20072;-78
2022/03/26 05:44:26;;;;;;;46.38;20.88;;;;;;;;;;5011221;28;20046;-79
2022/03/26 05:46:51;;;;;;;35.25;19.13;;;;;;;;;;5025414;28;20036;-86
2022/03/26 05:49:16;;;;;;;36.00;18.80;;;;;;;;;;5025019;28;20022;-76
2022/03/26 05:51:42;;;;;;;36.58;19.65;;;;;;;;;;5016143;28;20025;-84
2022/03/26 05:54:08;;;;;;;34.17;18.63;;;;;;;;;;5008839;28;20121;-83
2022/03/26 05:56:36;;;;;;;38.47;20.50;;;;;;;;;;4999368;28;20097;-81
2022/03/26 05:59:02;;;;;;;33.67;19.40;;;;;;;;;;4996324;28;20027;-75
2022/03/26 06:01:27;;;;;;;34.05;18.92;;;;;;;;;;5000068;28;20114;-82
2022/03/26 06:03:52;;;;;;;42.10;18.77;;;;;;;;;;5014076;28;20065;-78
2022/03/26 06:06:18;;;;;;;38.78;19.27;;;;;;;;;;5011107;28;20021;-82
2022/03/26 06:08:43;;;;;;;32.90;18.65;;;;;;;;;;5030418;28;20556;-77
2022/03/26 06:11:08;;;;;;;34.30;18.63;;;;;;;;;;5016261;28;20026;-76
2022/03/26 06:13:33;;;;;;;36.03;18.05;;;;;;;;;;5015314;28;20029;-83
2022/03/26 06:15:59;;;;;;;35.80;19.05;;;;;;;;;;5023706;28;20022;-86
2022/03/26 06:18:24;;;;;;;36.55;20.38;;;;;;;;;;5030640;28;20021;-86
2022/03/26 06:20:49;;;;;;;35.35;18.83;;;;;;;;;;5031841;28;20129;-85
2022/03/26 06:23:14;;;;;;;29.33;18.33;;;;;;;;;;5026955;28;20050;-85
2022/03/26 06:25:40;;;;;;;43.05;19.15;;;;;;;;;;5025946;28;20026;-76
2022/03/26 06:28:05;;;;;;;33.72;19.27;;;;;;;;;;5024307;28;20037;-88
2022/03/26 06:30:30;;;;;;;42.97;20.05;;;;;;;;;;5024820;28;21058;-75
2022/03/26 06:32:56;;;;;;;42.28;20.65;;;;;;;;;;5020761;28;20034;-85
2022/03/26 06:35:22;;;;;;;38.50;18.60;;;;;;;;;;5026999;28;20137;-78
2022/03/26 06:37:47;;;;;;;41.88;20.70;;;;;;;;;;5026483;28;20018;-85
2022/03/26 06:40:12;;;;;;;40.45;21.02;;;;;;;;;;5028611;28;20025;-85
2022/03/26 06:42:38;;;;;;;39.75;21.58;;;;;;;;;;5033804;28;20040;-82
2022/03/26 06:45:03;;;;;;;33.25;20.23;;;;;;;;;;5036008;28;20058;-84
2022/03/26 06:47:31;;;;;;;41.83;21.00;;;;;;;;;;5036581;28;20044;-81
2022/03/26 06:49:56;;;;;;;42.10;21.10;;;;;;;;;;5031876;28;20017;-77
2022/03/26 06:52:23;;;;;;;43.63;25.35;;;;;;;;;;5028520;28;20033;-86
2022/03/26 06:54:49;;;;;;;40.10;21.13;;;;;;;;;;5035214;28;20022;-84
2022/03/26 06:57:14;;;;;;;44.78;22.38;;;;;;;;;;5044476;28;20001;-84
2022/03/26 06:59:39;;;;;;;45.67;21.45;;;;;;;;;;5032541;28;20120;-81
2022/03/26 07:02:07;;;;;;;45.08;23.00;;;;;;;;;;5032356;28;20025;-85
2022/03/26 07:04:33;;;;;;;38.80;22.55;;;;;;;;;;5036650;28;20025;-86
2022/03/26 07:06:58;;;;;;;40.38;22.25;;;;;;;;;;5036875;28;20101;-87
2022/03/26 07:09:23;;;;;;;39.65;21.70;;;;;;;;;;5027549;28;20018;-88
2022/03/26 07:11:49;;;;;;;39.08;21.23;;;;;;;;;;5027611;28;20105;-83
2022/03/26 07:14:14;;;;;;;55.53;28.55;;;;;;;;;;5039187;28;20080;-86
2022/03/26 07:16:40;;;;;;;54.50;27.15;;;;;;;;;;5024485;28;20025;-88
2022/03/26 07:19:05;;;;;;;40.60;23.92;;;;;;;;;;5021383;28;20024;-89
2022/03/26 07:21:32;;;;;;;44.53;26.60;;;;;;;;;;5031060;28;20022;-85
2022/03/26 07:23:57;;;;;;;38.97;20.77;;;;;;;;;;5035152;28;20025;-85
2022/03/26 07:26:23;;;;;;;38.55;22.23;;;;;;;;;;5026792;28;20108;-84
2022/03/26 07:28:49;;;;;;;39.70;22.13;;;;;;;;;;5022638;28;20018;-82
2022/03/26 07:31:14;;;;;;;46.65;24.98;;;;;;;;;;5026556;28;20086;-90
2022/03/26 07:33:39;;;;;;;42.63;22.38;;;;;;;;;;5028570;28;20475;-79
2022/03/26 07:36:05;;;;;;;46.25;24.08;;;;;;;;;;5024054;28;20025;-86
2022/03/26 07:38:30;;;;;;;39.88;22.55;;;;;;;;;;5025083;28;20133;-86
2022/03/26 07:40:57;;;;;;;45.70;23.87;;;;;;;;;;5025735;28;20053;-88
2022/03/26 07:43:22;;;;;;;41.55;24.85;;;;;;;;;;5032712;28;20315;-89
2022/03/26 07:45:47;;;;;;;44.25;24.33;;;;;;;;;;5031002;28;20037;-85
2022/03/26 07:48:12;;;;;;;41.63;23.27;;;;;;;;;;5031105;28;20013;-83
2022/03/26 07:50:38;;;;;;;46.72;23.38;;;;;;;;;;5031413;28;20279;-90
2022/03/26 07:53:03;;;;;;;44.83;25.95;;;;;;;;;;5026224;28;20491;-84
2022/03/26 07:55:28;;;;;;;39.97;24.13;;;;;;;;;;5032587;28;20030;-86
2022/03/26 07:57:53;;;;;;;41.47;23.90;;;;;;;;;;5032864;28;20006;-89
2022/03/26 08:00:20;;;;;;;39.80;25.43;;;;;;;;;;5028142;28;20260;-86
2022/03/26 08:02:46;;;;;;;44.50;25.55;;;;;;;;;;5033896;28;20329;-86
2022/03/26 08:05:11;;;;;;;40.92;25.08;;;;;;;;;;5040824;28;20026;-88
2022/03/26 08:07:36;;;;;;;39.00;23.95;;;;;;;;;;5046836;28;20036;-83
2022/03/26 08:10:02;;;;;;;44.43;24.77;;;;;;;;;;5055643;28;20021;-86
2022/03/26 08:12:27;;;;;;;39.00;24.75;;;;;;;;;;5044284;28;20329;-84
2022/03/26 08:14:52;;;;;;;39.78;25.30;;;;;;;;;;5038469;28;20028;-85
2022/03/26 08:17:18;;;;;;;38.00;23.95;;;;;;;;;;5037550;28;20842;-84
2022/03/26 08:19:43;;;;;;;39.60;24.33;;;;;;;;;;5035735;28;20018;-86
2022/03/26 08:22:08;;;;;;;42.03;25.97;;;;;;;;;;5023341;28;20033;-81
2022/03/26 08:24:33;;;;;;;34.90;24.30;;;;;;;;;;5046540;28;20272;-86
2022/03/26 08:26:58;;;;;;;40.33;25.37;;;;;;;;;;5032183;28;20259;-88
2022/03/26 08:29:24;;;;;;;37.88;24.15;;;;;;;;;;5033466;28;20243;-86
2022/03/26 08:31:49;;;;;;;38.72;24.65;;;;;;;;;;5036352;28;20029;-86
2022/03/26 08:34:14;;;;;;;39.30;24.73;;;;;;;;;;5036000;28;20060;-87
2022/03/26 08:36:40;;;;;;;50.05;25.08;;;;;;;;;;5034389;28;20250;-81
2022/03/26 08:39:05;;;;;;;39.20;25.52;;;;;;;;;;5029202;28;20517;-82
2022/03/26 08:41:30;;;;;;;43.93;26.13;;;;;;;;;;5033299;28;20018;-85
2022/03/26 08:43:56;;;;;;;36.07;24.93;;;;;;;;;;5035403;28;20263;-84
2022/03/26 08:46:21;;;;;;;41.92;22.98;;;;;;;;;;5029161;28;20338;-82
2022/03/26 08:48:47;;;;;;;50.40;34.33;;;;;;;;;;5031062;28;20014;-81
2022/03/26 08:51:12;;;;;;;41.50;28.38;;;;;;;;;;5027074;28;20121;-82
2022/03/26 08:53:38;;;;;;;35.33;23.85;;;;;;;;;;5026913;28;20085;-83
2022/03/26 08:56:05;;;;;;;40.55;25.00;;;;;;;;;;5028125;28;20030;-87
2022/03/26 08:58:31;;;;;;;37.50;23.65;;;;;;;;;;5030724;28;20025;-82
2022/03/26 09:00:56;;;;;;;42.90;24.08;;;;;;;;;;5026082;28;20021;-82
2022/03/26 09:03:22;;;;;;;34.75;23.77;;;;;;;;;;5025186;28;20009;-84
2022/03/26 09:05:48;;;;;;;37.00;23.67;;;;;;;;;;5025293;28;20085;-83
2022/03/26 09:08:13;;;;;;;40.30;23.13;;;;;;;;;;5020591;28;20022;-73
2022/03/26 09:10:38;;;;;;;39.75;24.45;;;;;;;;;;5011553;28;20029;-75
2022/03/26 09:13:03;;;;;;;41.80;26.47;;;;;;;;;;5009505;28;20029;-76
2022/03/26 09:15:29;;;;;;;35.87;22.90;;;;;;;;;;5018263;28;20041;-77
2022/03/26 09:17:54;;;;;;;41.73;23.37;;;;;;;;;;5022002;28;20267;-78
2022/03/26 09:20:19;;;;;;;33.67;21.97;;;;;;;;;;5022689;28;20017;-76
2022/03/26 09:22:45;;;;;;;46.72;24.20;;;;;;;;;;5010125;28;20021;-75
2022/03/26 09:25:10;;;;;;;34.30;23.35;;;;;;;;;;5019233;28;20065;-75
2022/03/26 09:27:36;;;;;;;35.80;23.00;;;;;;;;;;5010121;28;20498;-76
2022/03/26 09:30:01;;;;;;;34.47;24.23;;;;;;;;;;5008702;28;20032;-71
2022/03/26 09:32:27;;;;;;;38.45;22.30;;;;;;;;;;5011561;28;20022;-73
2022/03/26 09:34:52;;;;;;;36.60;22.83;;;;;;;;;;5011766;28;20495;-73
2022/03/26 09:37:17;;;;;;;36.92;22.10;;;;;;;;;;5017018;28;20546;-72
2022/03/26 09:39:43;;;;;;;34.03;21.07;;;;;;;;;;5017882;28;20021;-72
2022/03/26 09:42:09;;;;;;;35.88;20.67;;;;;;;;;;5006563;28;20265;-72
2022/03/26 09:44:34;;;;;;;29.33;19.92;;;;;;;;;;5011495;28;20030;-73
2022/03/26 09:47:00;;;;;;;31.00;20.02;;;;;;;;;;5008251;28;20107;-70
2022/03/26 09:49:26;;;;;;;27.27;19.80;;;;;;;;;;5019359;28;20028;-73
2022/03/26 09:51:54;;;;;;;27.67;19.20;;;;;;;;;;5013371;28;20009;-72
2022/03/26 09:54:20;;;;;;;29.52;19.27;;;;;;;;;;5018606;28;20509;-74
2022/03/26 09:56:45;;;;;;;32.78;19.63;;;;;;;;;;5011476;28;20121;-75
2022/03/26 09:59:11;;;;;;;32.15;19.95;;;;;;;;;;5009104;28;20121;-72
2022/03/26 10:01:36;;;;;;;26.40;19.30;;;;;;;;;;5013794;28;20068;-72
2022/03/26 10:04:17;;;;;;;26.27;20.50;;;;;;;;;;5018653;28;20470;-71
2022/03/26 10:06:46;;;;;;;25.48;19.48;;;;;;;;;;5011643;28;20061;-72
2022/03/26 10:09:11;;;;;;;26.20;19.50;;;;;;;;;;5012591;28;20029;-71
2022/03/26 10:11:37;;;;;;;31.83;19.20;;;;;;;;;;5013796;28;20049;-71
2022/03/26 10:14:02;;;;;;;25.10;16.13;;;;;;;;;;5019529;28;20049;-70
2022/03/26 10:16:28;;;;;;;32.93;18.63;;;;;;;;;;5012866;28;20649;-71
2022/03/26 10:18:57;;;;;;;29.02;18.48;;;;;;;;;;5009101;28;20530;-71
2022/03/26 10:21:23;;;;;;;28.38;18.13;;;;;;;;;;5009434;28;20025;-71
2022/03/26 10:23:52;;;;;;;25.15;16.50;;;;;;;;;;5008944;28;20025;-72
2022/03/26 10:26:21;;;;;;;24.13;15.55;;;;;;;;;;5010151;28;20036;-70
2022/03/26 10:28:51;;;;;;;21.38;15.38;;;;;;;;;;5011859;28;20087;-71
2022/03/26 10:34:27;;;;;;;23.75;15.75;;;;;;;;;;5018242;28;20044;-77
2022/03/26 10:37:00;;;;;;;27.98;15.88;;;;;;;;;;5027071;28;20034;-71
2022/03/26 10:39:26;;;;;;;22.88;16.27;;;;;;;;;;5030166;28;20049;-72
2022/03/26 10:41:55;;;;;;;24.15;16.80;;;;;;;;;;5030097;28;20024;-72
2022/03/26 10:44:24;;;;;;;22.58;16.13;;;;;;;;;;5010379;28;20091;-72
2022/03/26 10:46:49;;;;;;;23.05;16.50;;;;;;;;;;5023442;28;20084;-71
2022/03/26 10:49:24;;;;;;;30.57;16.63;;;;;;;;;;5020781;28;20471;-73
2022/03/26 10:51:49;;;;;;;26.52;17.10;;;;;;;;;;5021106;28;20008;-73
2022/03/26 10:54:16;;;;;;;24.13;17.13;;;;;;;;;;5023277;28;20021;-74
2022/03/26 10:56:41;;;;;;;23.40;15.77;;;;;;;;;;5033015;28;20360;-74
2022/03/26 10:59:06;;;;;;;28.17;17.80;;;;;;;;;;5025184;28;20112;-76
2022/03/26 11:01:32;;;;;;;26.50;18.05;;;;;;;;;;5020591;28;20500;-75
2022/03/26 11:03:57;;;;;;;24.98;16.08;;;;;;;;;;5008162;28;20025;-74
2022/03/26 11:06:24;;;;;;;24.73;16.97;;;;;;;;;;5016215;28;20033;-74
2022/03/26 11:08:50;;;;;;;22.10;16.00;;;;;;;;;;5013024;28;20263;-79
2022/03/26 11:11:16;;;;;;;26.73;16.48;;;;;;;;;;5015451;28;20098;-77
2022/03/26 11:13:46;;;;;;;24.38;17.48;;;;;;;;;;5019058;28;20050;-79
2022/03/26 11:16:24;;;;;;;30.67;19.40;;;;;;;;;;5007730;28;20639;-73
2022/03/26 11:18:55;;;;;;;29.90;18.67;;;;;;;;;;5015384;28;20030;-76
2022/03/26 11:21:40;;;;;;;26.23;17.55;;;;;;;;;;5026584;28;20028;-82
2022/03/26 11:24:16;;;;;;;33.85;17.40;;;;;;;;;;5034275;28;19994;-85
2022/03/26 11:26:47;;;;;;;23.67;16.52;;;;;;;;;;5022051;28;20065;-81
2022/03/26 11:29:31;;;;;;;30.60;17.35;;;;;;;;;;5029921;28;20048;-83
2022/03/26 11:32:02;;;;;;;30.98;17.27;;;;;;;;;;5041015;28;20025;-86
2022/03/26 11:34:31;;;;;;;32.42;16.73;;;;;;;;;;5017840;28;20033;-87
2022/03/26 11:37:07;;;;;;;25.20;17.17;;;;;;;;;;5040304;28;20032;-81
2022/03/26 11:39:42;;;;;;;26.17;17.55;;;;;;;;;;5039176;28;20014;-80
2022/03/26 11:42:08;;;;;;;24.48;16.17;;;;;;;;;;5029248;28;20029;-89
2022/03/26 11:44:33;;;;;;;27.55;15.95;;;;;;;;;;5034003;28;20030;-86
2022/03/26 11:52:38;;;;;;;30.55;16.40;;;;;;;;;;5035914;28;20119;-88
2022/03/26 11:55:10;;;;;;;25.40;17.38;;;;;;;;;;5046563;28;20010;-84
2022/03/26 11:57:37;;;;;;;27.90;15.80;;;;;;;;;;5035548;28;20034;-85
2022/03/26 12:00:07;;;;;;;26.30;17.15;;;;;;;;;;5044238;28;20009;-86
2022/03/26 12:02:37;;;;;;;25.73;15.98;;;;;;;;;;5047758;28;20064;-85
2022/03/26 12:07:50;;;;;;;30.20;17.80;;;;;;;;;;5034057;28;20016;-83
2022/03/26 12:10:18;;;;;;;29.17;16.42;;;;;;;;;;5049018;28;20005;-81
2022/03/26 12:12:46;;;;;;;36.35;15.98;;;;;;;;;;5023263;28;20026;-85
2022/03/26 12:15:13;;;;;;;28.40;16.55;;;;;;;;;;5027778;28;20053;-84
2022/03/26 12:17:45;;;;;;;26.95;15.48;;;;;;;;;;5039962;28;20068;-77
2022/03/26 12:20:17;;;;;;;24.70;16.17;;;;;;;;;;5020927;28;20148;-78
2022/03/26 12:22:42;;;;;;;32.05;16.90;;;;;;;;;;5024077;28;20026;-81
2022/03/26 12:25:07;;;;;;;27.25;16.55;;;;;;;;;;5030367;28;20029;-80
2022/03/26 12:27:37;;;;;;;24.17;15.05;;;;;;;;;;5034474;28;20025;-86
2022/03/26 12:30:02;;;;;;;27.20;16.00;;;;;;;;;;5036959;28;20025;-87
2022/03/26 12:32:32;;;;;;;26.25;15.82;;;;;;;;;;5031042;28;20056;-81
2022/03/26 12:35:05;;;;;;;27.30;15.23;;;;;;;;;;5041683;28;20014;-83
2022/03/26 12:37:31;;;;;;;26.05;15.52;;;;;;;;;;5038539;28;20010;-82
2022/03/26 12:39:56;;;;;;;22.42;15.30;;;;;;;;;;5034835;28;20025;-88
2022/03/26 12:42:23;;;;;;;29.73;16.60;;;;;;;;;;5026021;28;20022;-85
2022/03/26 12:44:48;;;;;;;23.42;15.07;;;;;;;;;;5035801;28;20627;-81
2022/03/26 12:47:17;;;;;;;25.30;14.77;;;;;;;;;;5029601;28;20025;-84
2022/03/26 12:49:44;;;;;;;20.88;14.45;;;;;;;;;;5029513;28;20025;-84
2022/03/26 12:52:09;;;;;;;23.77;14.40;;;;;;;;;;5041868;28;20029;-83
2022/03/26 12:54:34;;;;;;;24.13;14.68;;;;;;;;;;5036619;28;20026;-84
2022/03/26 12:57:01;;;;;;;24.50;15.13;;;;;;;;;;5037436;28;20049;-82
2022/03/26 12:59:26;;;;;;;29.00;15.38;;;;;;;;;;5032963;28;20269;-85
2022/03/26 13:02:01;;;;;;;22.07;14.73;;;;;;;;;;5036611;28;20022;-82
2022/03/26 13:04:27;;;;;;;27.52;15.75;;;;;;;;;;5032709;28;20219;-83
2022/03/26 13:06:55;;;;;;;20.17;13.98;;;;;;;;;;5043449;28;20386;-79
2022/03/26 13:09:39;;;;;;;25.08;13.95;;;;;;;;;;5044311;28;20441;-83
2022/03/26 13:12:04;;;;;;;22.30;14.48;;;;;;;;;;5041933;28;20018;-80
2022/03/26 13:14:29;;;;;;;20.98;14.23;;;;;;;;;;5036651;28;20060;-83
2022/03/26 13:16:54;;;;;;;24.70;14.80;;;;;;;;;;5052963;28;20041;-83
2022/03/26 13:19:20;;;;;;;19.53;13.90;;;;;;;;;;5042728;28;20029;-83
2022/03/26 13:21:49;;;;;;;21.08;14.20;;;;;;;;;;5037069;28;20278;-84
2022/03/26 13:24:15;;;;;;;20.38;14.55;;;;;;;;;;5045025;28;20025;-83
2022/03/26 13:26:48;;;;;;;24.10;13.77;;;;;;;;;;5042535;28;20040;-87
2022/03/26 13:29:15;;;;;;;21.60;13.57;;;;;;;;;;5032253;28;20025;-86
2022/03/26 13:31:45;;;;;;;22.80;14.20;;;;;;;;;;5039935;28;20018;-83
2022/03/26 13:34:15;;;;;;;19.83;13.35;;;;;;;;;;5036147;28;20021;-90
2022/03/26 13:36:42;;;;;;;21.98;13.77;;;;;;;;;;5037061;28;20036;-79
2022/03/26 13:39:15;;;;;;;22.23;13.93;;;;;;;;;;5035441;28;20025;-86
2022/03/26 13:41:40;;;;;;;21.35;12.60;;;;;;;;;;5035137;28;20668;-74
2022/03/26 13:44:06;;;;;;;23.08;13.05;;;;;;;;;;5036761;28;20010;-81
2022/03/26 13:46:32;;;;;;;22.77;13.48;;;;;;;;;;5036423;28;20030;-81
2022/03/26 13:48:57;;;;;;;17.17;12.57;;;;;;;;;;5037231;28;20006;-83
2022/03/26 13:51:27;;;;;;;19.73;14.23;;;;;;;;;;5027348;28;20068;-81
2022/03/26 13:53:52;;;;;;;19.88;13.20;;;;;;;;;;5034811;28;20053;-83
2022/03/26 13:56:17;;;;;;;21.48;14.00;;;;;;;;;;5030923;28;20018;-86
2022/03/26 13:58:49;;;;;;;20.20;14.13;;;;;;;;;;5032245;28;20085;-85
2022/03/26 14:01:16;;;;;;;20.10;12.60;;;;;;;;;;5026492;28;20034;-80
2022/03/26 14:03:41;;;;;;;26.42;12.90;;;;;;;;;;5027430;28;20090;-81
2022/03/26 14:06:07;;;;;;;18.70;13.07;;;;;;;;;;5028652;28;20080;-76
2022/03/26 14:08:34;;;;;;;20.85;12.80;;;;;;;;;;5027714;28;20310;-80
2022/03/26 14:10:59;;;;;;;21.02;12.45;;;;;;;;;;5030643;28;20014;-83
2022/03/26 14:13:24;;;;;;;19.63;11.55;;;;;;;;;;5030058;28;20080;-81
2022/03/26 14:15:50;;;;;;;17.47;11.13;;;;;;;;;;5027473;28;20022;-86
2022/03/26 14:18:16;;;;;;;19.63;13.68;;;;;;;;;;5037999;28;20287;-85
2022/03/26 14:20:41;;;;;;;26.75;15.65;;;;;;;;;;5031655;28;20010;-87
2022/03/26 14:23:07;;;;;;;16.00;10.17;;;;;;;;;;5036602;28;20025;-85